Rutledge, Iowa
Current Conditions -  °F | °C
As of 4:38 PM on Sunday 21 Dec 2014 (Local Time) from KOTM Reporting Station
Overcast Overcast  
Wind Chill: 36°   Ceiling: 3800
Heat Index: 42°   Visibility: 10mi
Dew Point: 37°   Wind: 10mph
Humidity: 82%   Direction: 170°S
Pressure: 29.88"   Gusts: NA
Location:  41.0803°N, 92.3054°W
Report Text: KOTM 212238Z AUTO 17009KT 10SM SCT019 OVC038 06/03 A2988 RMK AO2 T00560028
Loading
Personal Weather Stations






























Interactive Weather Map New forecast layout! Learn more

10-Day Weather Forecast

Advertisements
Track Severe Weather on mobile